Time;durP1;ratioP1;P1;durP2;ratioP2;P2;SDS_P1;SDS_P2;PMS_P1;PMS_P2;Temp;Humidity;BMP_temperature;BMP_pressure;BME280_temperature;BME280_humidity;BME280_pressure;Samples;Min_cycle;Max_cycle;Signal;HPM_P1;HPM_P2
2023/09/22 00:00:35;;;;;;;0.60;0.30;;;;;;;;;;2074552;28;20474;-56
2023/09/22 00:01:35;;;;;;;1.35;0.50;;;;;;;;;;2073120;28;20050;-56
2023/09/22 00:02:37;;;;;;;1.25;0.30;;;;;;;;;;2073787;28;20106;-56
2023/09/22 00:03:37;;;;;;;0.45;0.40;;;;;;;;;;2074811;28;20041;-55
2023/09/22 00:04:39;;;;;;;0.95;0.60;;;;;;;;;;2074532;28;20389;-56
2023/09/22 00:05:40;;;;;;;1.33;0.60;;;;;;;;;;2074544;28;20048;-56
2023/09/22 00:06:41;;;;;;;1.48;0.60;;;;;;;;;;2074172;28;20187;-56
2023/09/22 00:07:42;;;;;;;0.50;0.40;;;;;;;;;;2074631;28;20051;-56
2023/09/22 00:08:42;;;;;;;1.25;0.60;;;;;;;;;;2074593;28;20030;-56
2023/09/22 00:09:43;;;;;;;1.90;0.40;;;;;;;;;;2074520;28;20037;-56
2023/09/22 00:10:44;;;;;;;1.25;0.60;;;;;;;;;;2074455;28;20056;-56
2023/09/22 00:11:45;;;;;;;1.58;0.65;;;;;;;;;;2073933;28;20049;-56
2023/09/22 00:12:46;;;;;;;0.77;0.50;;;;;;;;;;2074654;28;20030;-56
2023/09/22 00:13:46;;;;;;;0.93;0.47;;;;;;;;;;2075035;28;20030;-56
2023/09/22 00:14:47;;;;;;;0.85;0.40;;;;;;;;;;2074335;28;20038;-56
2023/09/22 00:15:48;;;;;;;0.88;0.50;;;;;;;;;;2074446;28;20037;-56
2023/09/22 00:16:48;;;;;;;0.82;0.68;;;;;;;;;;2073922;28;20090;-56
2023/09/22 00:17:49;;;;;;;0.95;0.57;;;;;;;;;;2074537;28;20474;-56
2023/09/22 00:18:50;;;;;;;0.22;0.22;;;;;;;;;;2073598;28;20041;-56
2023/09/22 00:19:51;;;;;;;1.20;0.45;;;;;;;;;;2074770;28;20038;-57
2023/09/22 00:20:51;;;;;;;1.05;0.50;;;;;;;;;;2074492;28;20038;-56
2023/09/22 00:21:55;;;;;;;1.52;0.70;;;;;;;;;;2074348;28;20030;-57
2023/09/22 00:22:56;;;;;;;1.42;0.60;;;;;;;;;;2074379;28;20034;-56
2023/09/22 00:23:57;;;;;;;2.38;0.80;;;;;;;;;;2074558;28;20037;-56
2023/09/22 00:24:57;;;;;;;3.05;0.60;;;;;;;;;;2074496;28;20414;-56
2023/09/22 00:25:58;;;;;;;0.77;0.57;;;;;;;;;;2074058;28;20050;-56
2023/09/22 00:26:59;;;;;;;1.33;0.47;;;;;;;;;;2074321;28;20045;-56
2023/09/22 00:27:59;;;;;;;1.02;0.60;;;;;;;;;;2073823;28;20037;-56
2023/09/22 00:29:00;;;;;;;0.70;0.50;;;;;;;;;;2074057;28;20041;-55
2023/09/22 00:30:02;;;;;;;1.38;0.57;;;;;;;;;;2074441;28;20465;-56
2023/09/22 00:31:02;;;;;;;0.85;0.52;;;;;;;;;;2074282;28;20038;-56
2023/09/22 00:32:03;;;;;;;0.90;0.60;;;;;;;;;;2073705;28;20046;-55
2023/09/22 00:33:04;;;;;;;1.42;0.70;;;;;;;;;;2074567;28;20053;-55
2023/09/22 00:34:05;;;;;;;0.77;0.40;;;;;;;;;;2073737;28;20050;-56
2023/09/22 00:35:06;;;;;;;1.13;0.68;;;;;;;;;;2074021;28;20053;-56
2023/09/22 00:36:07;;;;;;;2.88;0.50;;;;;;;;;;2074063;28;20045;-56
2023/09/22 00:37:07;;;;;;;1.17;0.52;;;;;;;;;;2074255;28;20046;-56
2023/09/22 00:38:08;;;;;;;0.93;0.57;;;;;;;;;;2073460;28;20382;-56
2023/09/22 00:39:09;;;;;;;1.55;0.55;;;;;;;;;;2073680;28;20065;-55
2023/09/22 00:40:12;;;;;;;1.85;0.47;;;;;;;;;;2073598;28;20038;-56
2023/09/22 00:41:13;;;;;;;2.22;0.60;;;;;;;;;;2074143;28;20398;-56
2023/09/22 00:42:14;;;;;;;1.30;0.70;;;;;;;;;;2074294;28;20037;-56
2023/09/22 00:43:16;;;;;;;2.38;0.70;;;;;;;;;;2074213;28;20088;-56
2023/09/22 00:44:17;;;;;;;1.60;0.60;;;;;;;;;;2074176;28;20049;-56
2023/09/22 00:45:18;;;;;;;0.68;0.40;;;;;;;;;;2073903;28;20054;-56
2023/09/22 00:46:20;;;;;;;0.52;0.50;;;;;;;;;;2073500;28;20045;-56
2023/09/22 00:47:22;;;;;;;0.75;0.63;;;;;;;;;;2065520;28;20042;-56
2023/09/22 00:48:23;;;;;;;1.05;0.50;;;;;;;;;;2065788;28;20459;-56
2023/09/22 00:49:24;;;;;;;0.77;0.50;;;;;;;;;;2065457;28;20034;-56
2023/09/22 00:50:24;;;;;;;0.50;0.40;;;;;;;;;;2065671;28;20050;-56
2023/09/22 00:51:25;;;;;;;2.50;0.52;;;;;;;;;;2064996;28;20180;-57
2023/09/22 00:52:27;;;;;;;0.60;0.47;;;;;;;;;;2073039;28;20046;-56
2023/09/22 00:53:27;;;;;;;1.35;0.50;;;;;;;;;;2074290;28;20034;-56
2023/09/22 00:54:29;;;;;;;1.13;0.68;;;;;;;;;;2074159;28;20367;-56
2023/09/22 00:55:29;;;;;;;0.70;0.50;;;;;;;;;;2073810;28;20046;-56
2023/09/22 00:56:30;;;;;;;0.98;0.60;;;;;;;;;;2074121;28;20030;-56
2023/09/22 00:57:31;;;;;;;1.40;0.57;;;;;;;;;;2073271;28;20072;-56
2023/09/22 00:58:32;;;;;;;1.27;0.60;;;;;;;;;;2072952;28;20490;-56
2023/09/22 00:59:33;;;;;;;1.42;0.40;;;;;;;;;;2072864;28;20045;-56
2023/09/22 01:00:33;;;;;;;1.25;0.60;;;;;;;;;;2065441;28;20459;-57
2023/09/22 01:01:34;;;;;;;1.05;0.63;;;;;;;;;;2057359;28;20039;-57
2023/09/22 01:02:36;;;;;;;0.70;0.45;;;;;;;;;;2065351;28;20049;-57
2023/09/22 01:03:36;;;;;;;1.83;0.55;;;;;;;;;;2073405;28;20430;-58
2023/09/22 01:04:37;;;;;;;0.90;0.50;;;;;;;;;;2074196;28;20045;-57
2023/09/22 01:05:38;;;;;;;1.33;0.50;;;;;;;;;;2074091;28;20041;-57
2023/09/22 01:06:39;;;;;;;0.95;0.50;;;;;;;;;;2074171;28;20108;-57
2023/09/22 01:07:40;;;;;;;2.72;0.50;;;;;;;;;;2073525;28;20057;-57
2023/09/22 01:08:40;;;;;;;1.15;0.60;;;;;;;;;;2073149;28;20133;-57
2023/09/22 01:09:41;;;;;;;1.38;0.50;;;;;;;;;;2074248;28;20041;-57
2023/09/22 01:10:45;;;;;;;1.60;0.70;;;;;;;;;;2073135;28;20497;-57
2023/09/22 01:11:46;;;;;;;0.40;0.40;;;;;;;;;;2073148;28;20045;-57
2023/09/22 01:12:46;;;;;;;1.25;0.55;;;;;;;;;;2074219;28;20116;-57
2023/09/22 01:13:47;;;;;;;1.40;0.65;;;;;;;;;;2065155;28;20043;-57
2023/09/22 01:14:48;;;;;;;0.70;0.30;;;;;;;;;;2065294;28;20019;-57
2023/09/22 01:15:49;;;;;;;0.75;0.40;;;;;;;;;;2073732;28;20053;-56
2023/09/22 01:16:51;;;;;;;0.60;0.47;;;;;;;;;;2073582;28;20037;-56
2023/09/22 01:17:52;;;;;;;1.30;0.57;;;;;;;;;;2074136;28;20050;-57
2023/09/22 01:18:52;;;;;;;0.68;0.45;;;;;;;;;;2074033;28;20367;-57
2023/09/22 01:19:53;;;;;;;2.67;0.68;;;;;;;;;;2073317;28;20092;-56
2023/09/22 01:20:57;;;;;;;1.00;0.40;;;;;;;;;;2073531;28;20029;-57
2023/09/22 01:21:58;;;;;;;1.38;0.63;;;;;;;;;;2073959;28;20037;-56
2023/09/22 01:23:00;;;;;;;1.20;0.50;;;;;;;;;;2072949;28;20505;-56
2023/09/22 01:24:01;;;;;;;1.08;0.60;;;;;;;;;;2072745;28;20049;-57
2023/09/22 01:25:01;;;;;;;0.65;0.40;;;;;;;;;;2073923;28;20069;-56
2023/09/22 01:26:02;;;;;;;0.63;0.40;;;;;;;;;;2074045;28;20038;-56
2023/09/22 01:27:03;;;;;;;1.17;0.30;;;;;;;;;;2074005;28;20045;-56
2023/09/22 01:28:05;;;;;;;0.50;0.35;;;;;;;;;;2074278;28;20477;-56
2023/09/22 01:29:06;;;;;;;0.63;0.40;;;;;;;;;;2073992;28;20052;-56
2023/09/22 01:30:09;;;;;;;0.60;0.50;;;;;;;;;;2073531;28;20510;-56
2023/09/22 01:31:11;;;;;;;0.65;0.32;;;;;;;;;;2073999;28;20086;-56
2023/09/22 01:32:11;;;;;;;2.42;0.63;;;;;;;;;;2073956;28;20046;-56
2023/09/22 01:33:12;;;;;;;1.70;0.68;;;;;;;;;;2073959;28;20033;-56
2023/09/22 01:34:15;;;;;;;1.08;0.55;;;;;;;;;;2072800;28;20477;-56
2023/09/22 01:35:16;;;;;;;1.92;0.70;;;;;;;;;;2073058;28;20045;-56
2023/09/22 01:36:17;;;;;;;1.63;0.50;;;;;;;;;;2072945;28;20489;-56
2023/09/22 01:37:18;;;;;;;1.23;0.57;;;;;;;;;;2073193;28;20125;-56
2023/09/22 01:38:19;;;;;;;2.42;0.70;;;;;;;;;;2064857;28;20053;-56
2023/09/22 01:39:22;;;;;;;1.67;0.60;;;;;;;;;;2065042;28;20046;-56
2023/09/22 01:40:23;;;;;;;1.00;0.60;;;;;;;;;;2074228;28;20045;-56
2023/09/22 01:41:24;;;;;;;1.50;0.52;;;;;;;;;;2073434;28;20048;-56
2023/09/22 01:42:25;;;;;;;2.03;0.70;;;;;;;;;;2073245;28;20046;-56
2023/09/22 01:43:25;;;;;;;0.90;0.50;;;;;;;;;;2064925;28;20383;-55
2023/09/22 01:44:26;;;;;;;2.08;0.60;;;;;;;;;;2073350;28;20045;-56
2023/09/22 01:45:27;;;;;;;1.70;0.50;;;;;;;;;;2073898;28;20026;-56
2023/09/22 01:46:28;;;;;;;2.03;0.63;;;;;;;;;;2073200;28;20053;-56
2023/09/22 01:47:29;;;;;;;0.93;0.75;;;;;;;;;;2072729;28;20041;-56
2023/09/22 01:48:30;;;;;;;1.40;0.52;;;;;;;;;;2064556;28;20054;-56
2023/09/22 01:49:31;;;;;;;2.20;0.60;;;;;;;;;;2072548;28;20046;-56
2023/09/22 01:50:36;;;;;;;2.75;0.75;;;;;;;;;;2073794;28;20054;-56
2023/09/22 01:51:38;;;;;;;1.42;0.63;;;;;;;;;;2073513;28;20049;-56
2023/09/22 01:52:39;;;;;;;3.38;1.23;;;;;;;;;;2073850;28;20037;-56
2023/09/22 01:53:40;;;;;;;1.42;0.70;;;;;;;;;;2073464;28;20382;-56
2023/09/22 01:54:41;;;;;;;0.80;0.50;;;;;;;;;;2073927;28;20034;-57
2023/09/22 01:55:41;;;;;;;1.90;0.93;;;;;;;;;;2073742;28;20084;-56
2023/09/22 01:56:42;;;;;;;3.17;0.68;;;;;;;;;;2073104;28;20046;-56
2023/09/22 01:57:45;;;;;;;1.23;0.60;;;;;;;;;;2064790;28;20049;-57
2023/09/22 01:58:48;;;;;;;1.50;0.75;;;;;;;;;;2056510;28;20034;-57
2023/09/22 01:59:49;;;;;;;1.55;0.80;;;;;;;;;;2049945;28;20069;-56
2023/09/22 02:00:49;;;;;;;1.80;0.68;;;;;;;;;;2073517;28;20037;-56
2023/09/22 02:01:50;;;;;;;3.00;0.85;;;;;;;;;;2073676;28;20132;-56
2023/09/22 02:02:55;;;;;;;1.30;0.88;;;;;;;;;;2074152;28;20453;-56
2023/09/22 02:03:55;;;;;;;2.08;0.68;;;;;;;;;;2065120;28;20051;-56
2023/09/22 02:04:56;;;;;;;1.48;0.70;;;;;;;;;;2064728;28;20042;-56
2023/09/22 02:05:59;;;;;;;1.55;0.70;;;;;;;;;;2073091;28;20394;-57
2023/09/22 02:07:00;;;;;;;0.95;0.70;;;;;;;;;;2064972;28;20042;-57
2023/09/22 02:08:01;;;;;;;1.00;0.60;;;;;;;;;;2065046;28;20518;-57
2023/09/22 02:09:04;;;;;;;1.55;0.80;;;;;;;;;;2073108;28;20121;-57
2023/09/22 02:10:05;;;;;;;1.65;0.50;;;;;;;;;;2073428;28;20034;-57
2023/09/22 02:11:06;;;;;;;2.72;0.95;;;;;;;;;;2073717;28;20049;-56
2023/09/22 02:12:06;;;;;;;1.35;0.80;;;;;;;;;;2073842;28;20557;-57
2023/09/22 02:13:09;;;;;;;1.52;0.60;;;;;;;;;;2073837;28;20034;-57
2023/09/22 02:14:10;;;;;;;1.83;0.70;;;;;;;;;;2073841;28;20045;-56
2023/09/22 02:15:12;;;;;;;1.40;0.65;;;;;;;;;;2073011;28;20046;-58
2023/09/22 02:16:12;;;;;;;2.20;0.70;;;;;;;;;;2064944;28;20046;-57
2023/09/22 02:17:13;;;;;;;1.77;0.70;;;;;;;;;;2064973;28;20038;-57
2023/09/22 02:18:14;;;;;;;1.25;0.80;;;;;;;;;;2073448;28;20498;-57
2023/09/22 02:19:14;;;;;;;2.05;0.80;;;;;;;;;;2072460;28;20064;-57
2023/09/22 02:20:18;;;;;;;1.17;0.80;;;;;;;;;;2073124;28;20037;-58
2023/09/22 02:21:19;;;;;;;1.08;0.70;;;;;;;;;;2073213;28;20438;-57
2023/09/22 02:22:19;;;;;;;1.40;0.75;;;;;;;;;;2064754;28;20042;-57
2023/09/22 02:23:21;;;;;;;3.05;0.90;;;;;;;;;;2072869;28;20045;-58
2023/09/22 02:24:21;;;;;;;1.65;0.90;;;;;;;;;;2072624;28;20046;-58
2023/09/22 02:25:23;;;;;;;1.83;0.93;;;;;;;;;;2073331;28;20053;-58
2023/09/22 02:26:24;;;;;;;4.68;0.90;;;;;;;;;;2073729;28;20084;-58
2023/09/22 02:27:26;;;;;;;1.10;0.68;;;;;;;;;;2073517;28;20462;-58
2023/09/22 02:28:27;;;;;;;1.00;0.70;;;;;;;;;;2073306;28;20037;-58
2023/09/22 02:29:27;;;;;;;0.90;0.65;;;;;;;;;;2073093;28;20454;-57
2023/09/22 02:30:28;;;;;;;2.20;0.75;;;;;;;;;;2072458;28;20046;-57
2023/09/22 02:31:29;;;;;;;1.88;0.80;;;;;;;;;;2072361;28;20061;-58
2023/09/22 02:32:30;;;;;;;1.73;0.90;;;;;;;;;;2072550;28;20045;-58
2023/09/22 02:33:30;;;;;;;1.23;0.70;;;;;;;;;;2072789;28;20038;-58
2023/09/22 02:34:33;;;;;;;1.80;0.77;;;;;;;;;;2073672;28;20461;-58
2023/09/22 02:35:33;;;;;;;1.77;0.88;;;;;;;;;;2072983;28;20502;-58
2023/09/22 02:36:34;;;;;;;1.50;0.77;;;;;;;;;;2065498;28;20045;-58
2023/09/22 02:37:35;;;;;;;1.58;1.00;;;;;;;;;;2065217;28;20042;-58
2023/09/22 02:38:36;;;;;;;1.67;0.98;;;;;;;;;;2073016;28;20057;-58
2023/09/22 02:39:36;;;;;;;1.13;0.75;;;;;;;;;;2074025;28;20390;-58
2023/09/22 02:40:38;;;;;;;1.88;1.10;;;;;;;;;;2074337;28;20052;-59
2023/09/22 02:41:39;;;;;;;1.17;0.73;;;;;;;;;;2074559;28;20470;-57
2023/09/22 02:42:40;;;;;;;1.83;0.80;;;;;;;;;;2074861;28;20045;-57
2023/09/22 02:43:41;;;;;;;2.40;0.98;;;;;;;;;;2074533;28;20176;-58
2023/09/22 02:44:42;;;;;;;2.05;0.88;;;;;;;;;;2075556;28;20120;-58
2023/09/22 02:45:42;;;;;;;4.72;0.80;;;;;;;;;;2075435;28;20037;-58
2023/09/22 02:46:43;;;;;;;2.10;0.93;;;;;;;;;;2073952;28;20038;-58
2023/09/22 02:47:44;;;;;;;1.27;0.82;;;;;;;;;;2074678;28;20037;-58
2023/09/22 02:48:45;;;;;;;1.73;0.95;;;;;;;;;;2075061;28;20042;-58
2023/09/22 02:49:47;;;;;;;2.22;1.20;;;;;;;;;;2074571;28;20053;-58
2023/09/22 02:50:48;;;;;;;1.85;0.80;;;;;;;;;;2075147;28;20050;-58
2023/09/22 02:51:49;;;;;;;1.52;0.90;;;;;;;;;;2074775;28;20050;-57
2023/09/22 02:52:49;;;;;;;2.20;0.73;;;;;;;;;;2075178;28;20462;-57
2023/09/22 02:53:50;;;;;;;2.38;0.77;;;;;;;;;;2074320;28;20049;-58
2023/09/22 02:54:54;;;;;;;2.17;0.75;;;;;;;;;;2066503;28;20113;-58
2023/09/22 02:55:56;;;;;;;1.60;0.73;;;;;;;;;;2074603;28;20064;-58
2023/09/22 02:56:56;;;;;;;2.22;0.80;;;;;;;;;;2066590;28;20041;-57
2023/09/22 02:57:57;;;;;;;1.13;0.70;;;;;;;;;;2074484;28;20216;-57
2023/09/22 02:58:59;;;;;;;1.40;0.80;;;;;;;;;;2074804;28;20045;-57
2023/09/22 03:00:00;;;;;;;2.53;0.95;;;;;;;;;;2075131;28;20073;-58
2023/09/22 03:01:00;;;;;;;1.95;0.85;;;;;;;;;;2074480;28;20038;-58
2023/09/22 03:02:01;;;;;;;1.63;0.90;;;;;;;;;;2074146;28;20049;-57
2023/09/22 03:03:03;;;;;;;2.28;0.95;;;;;;;;;;2075139;28;20037;-58
2023/09/22 03:04:04;;;;;;;0.80;0.60;;;;;;;;;;2074465;28;20517;-58
2023/09/22 03:05:07;;;;;;;1.85;1.00;;;;;;;;;;2074381;28;20482;-58
2023/09/22 03:06:09;;;;;;;6.63;1.05;;;;;;;;;;2074183;28;20050;-58
2023/09/22 03:07:10;;;;;;;1.75;1.05;;;;;;;;;;2065709;28;20053;-58
2023/09/22 03:08:10;;;;;;;1.50;0.85;;;;;;;;;;2074278;28;20421;-58
2023/09/22 03:09:11;;;;;;;1.95;0.80;;;;;;;;;;2073917;28;20038;-58
2023/09/22 03:10:12;;;;;;;1.50;0.88;;;;;;;;;;2073825;28;20046;-59
2023/09/22 03:11:12;;;;;;;3.58;0.90;;;;;;;;;;2075040;28;20099;-57
2023/09/22 03:12:13;;;;;;;1.67;1.00;;;;;;;;;;2074931;28;20049;-58
2023/09/22 03:13:14;;;;;;;2.03;0.93;;;;;;;;;;2075078;28;20062;-58
2023/09/22 03:14:15;;;;;;;1.52;0.82;;;;;;;;;;2074334;28;20046;-57
2023/09/22 03:15:16;;;;;;;2.03;0.70;;;;;;;;;;2074489;28;20046;-58
2023/09/22 03:16:17;;;;;;;2.10;1.00;;;;;;;;;;2066179;28;20042;-58
2023/09/22 03:17:18;;;;;;;1.30;0.80;;;;;;;;;;2065967;28;20137;-58
2023/09/22 03:18:19;;;;;;;2.03;0.93;;;;;;;;;;2065882;28;20145;-58
2023/09/22 03:19:20;;;;;;;1.27;0.70;;;;;;;;;;2074046;28;20057;-57
2023/09/22 03:20:20;;;;;;;1.33;0.80;;;;;;;;;;2074975;28;20045;-58
2023/09/22 03:21:22;;;;;;;1.05;0.80;;;;;;;;;;2073647;28;20038;-58
2023/09/22 03:22:24;;;;;;;1.85;1.00;;;;;;;;;;2074052;28;20049;-58
2023/09/22 03:23:25;;;;;;;2.38;0.90;;;;;;;;;;2075137;28;20041;-58
2023/09/22 03:24:26;;;;;;;1.98;1.05;;;;;;;;;;2073631;28;20417;-58
2023/09/22 03:25:27;;;;;;;1.98;1.00;;;;;;;;;;2065624;28;20041;-57
2023/09/22 03:26:28;;;;;;;1.33;0.80;;;;;;;;;;2065806;28;20064;-57
2023/09/22 03:27:35;;;;;;;1.77;1.00;;;;;;;;;;2066514;28;20049;-58
2023/09/22 03:28:37;;;;;;;2.22;1.17;;;;;;;;;;2067279;28;20046;-58
2023/09/22 03:29:38;;;;;;;1.65;0.93;;;;;;;;;;2066083;28;20034;-57
2023/09/22 03:30:39;;;;;;;1.77;1.00;;;;;;;;;;2074127;28;20049;-57
2023/09/22 03:31:41;;;;;;;1.27;0.70;;;;;;;;;;2074137;28;20046;-59
2023/09/22 03:32:43;;;;;;;2.05;1.25;;;;;;;;;;2065599;28;20433;-58
2023/09/22 03:33:47;;;;;;;2.22;1.13;;;;;;;;;;2074141;28;20054;-58
2023/09/22 03:34:48;;;;;;;1.90;1.00;;;;;;;;;;2066098;28;20038;-58
2023/09/22 03:35:50;;;;;;;2.63;0.95;;;;;;;;;;2065954;28;20038;-57
2023/09/22 03:36:51;;;;;;;3.38;1.10;;;;;;;;;;2074593;28;20026;-58
2023/09/22 03:37:52;;;;;;;4.25;1.40;;;;;;;;;;2073905;28;20048;-59
2023/09/22 03:38:53;;;;;;;4.78;1.35;;;;;;;;;;2065633;28;20042;-59
2023/09/22 03:39:54;;;;;;;2.08;1.20;;;;;;;;;;2073766;28;20041;-59
2023/09/22 03:41:00;;;;;;;2.20;1.02;;;;;;;;;;2074380;28;20034;-58
2023/09/22 03:42:01;;;;;;;1.95;1.05;;;;;;;;;;2066452;28;20046;-58
2023/09/22 03:43:03;;;;;;;2.38;1.23;;;;;;;;;;2073841;28;20093;-58
2023/09/22 03:44:04;;;;;;;3.05;1.20;;;;;;;;;;2073856;28;20068;-59
2023/09/22 03:45:07;;;;;;;2.47;1.08;;;;;;;;;;2073733;28;20406;-58
2023/09/22 03:46:08;;;;;;;3.28;1.40;;;;;;;;;;2065823;28;20050;-59
2023/09/22 03:47:08;;;;;;;1.75;1.17;;;;;;;;;;2066002;28;20386;-58
2023/09/22 03:48:09;;;;;;;2.78;1.40;;;;;;;;;;2065972;28;20053;-59
2023/09/22 03:49:10;;;;;;;1.48;0.95;;;;;;;;;;2065657;28;20042;-59
2023/09/22 03:50:11;;;;;;;2.10;1.30;;;;;;;;;;2074301;28;20437;-58
2023/09/22 03:51:11;;;;;;;3.95;1.25;;;;;;;;;;2065515;28;20482;-58
2023/09/22 03:52:14;;;;;;;2.78;1.30;;;;;;;;;;2057893;28;20046;-58
2023/09/22 03:53:14;;;;;;;3.53;1.08;;;;;;;;;;2065839;28;20050;-58
2023/09/22 03:54:15;;;;;;;1.83;1.10;;;;;;;;;;2073815;28;20050;-58
2023/09/22 03:55:16;;;;;;;2.28;1.30;;;;;;;;;;2074076;28;20053;-57
2023/09/22 03:56:17;;;;;;;4.07;1.00;;;;;;;;;;2074528;28;20053;-58
2023/09/22 03:57:19;;;;;;;2.67;1.10;;;;;;;;;;2073647;28;20061;-58
2023/09/22 03:58:20;;;;;;;2.25;0.98;;;;;;;;;;2074056;28;20038;-57
2023/09/22 03:59:21;;;;;;;2.00;0.90;;;;;;;;;;2073957;28;20069;-58
2023/09/22 04:00:27;;;;;;;4.10;1.10;;;;;;;;;;2065383;28;20069;-57
2023/09/22 04:01:29;;;;;;;2.33;1.20;;;;;;;;;;2066835;28;20049;-58
2023/09/22 04:02:30;;;;;;;2.58;1.10;;;;;;;;;;2073703;28;20501;-57
2023/09/22 04:03:31;;;;;;;2.28;1.30;;;;;;;;;;2074030;28;20046;-58
2023/09/22 04:04:32;;;;;;;3.03;1.35;;;;;;;;;;2074682;28;20092;-58
2023/09/22 04:05:32;;;;;;;2.08;1.00;;;;;;;;;;2073409;28;20042;-58
2023/09/22 04:06:33;;;;;;;2.92;1.20;;;;;;;;;;2073906;28;20037;-57
2023/09/22 04:07:35;;;;;;;2.20;1.20;;;;;;;;;;2073418;28;20524;-57
2023/09/22 04:08:36;;;;;;;2.67;0.80;;;;;;;;;;2074537;28;20036;-58
2023/09/22 04:09:36;;;;;;;5.78;1.20;;;;;;;;;;2073836;28;20057;-58
2023/09/22 04:10:37;;;;;;;3.28;1.08;;;;;;;;;;2073554;28;20386;-58
2023/09/22 04:11:38;;;;;;;3.00;1.50;;;;;;;;;;2073597;28;20547;-58
2023/09/22 04:12:39;;;;;;;3.40;1.20;;;;;;;;;;2065765;28;20053;-58
2023/09/22 04:13:40;;;;;;;2.58;1.40;;;;;;;;;;2065744;28;20038;-58
2023/09/22 04:14:41;;;;;;;1.30;0.90;;;;;;;;;;2074023;28;20489;-58
2023/09/22 04:15:42;;;;;;;2.28;1.00;;;;;;;;;;2073870;28;20041;-58
2023/09/22 04:16:42;;;;;;;1.95;1.20;;;;;;;;;;2073538;28;20096;-59
2023/09/22 04:17:45;;;;;;;1.42;1.10;;;;;;;;;;2074624;28;20133;-58
2023/09/22 04:18:46;;;;;;;3.30;1.10;;;;;;;;;;2074465;28;20038;-58
2023/09/22 04:19:49;;;;;;;4.32;1.85;;;;;;;;;;2074609;28;20386;-58
2023/09/22 04:20:50;;;;;;;2.30;1.17;;;;;;;;;;2074406;28;20030;-59
2023/09/22 04:21:52;;;;;;;4.28;1.10;;;;;;;;;;2073772;28;20497;-58
2023/09/22 04:22:53;;;;;;;2.55;1.33;;;;;;;;;;2074403;28;20038;-58
2023/09/22 04:23:57;;;;;;;2.35;1.23;;;;;;;;;;2074362;28;20092;-58
2023/09/22 04:25:00;;;;;;;2.50;1.33;;;;;;;;;;2074476;28;20489;-58
2023/09/22 04:26:05;;;;;;;3.20;1.10;;;;;;;;;;2074128;28;20050;-58
2023/09/22 04:27:09;;;;;;;2.42;1.30;;;;;;;;;;2073988;28;20050;-58
2023/09/22 04:28:11;;;;;;;3.05;1.45;;;;;;;;;;2074483;28;20037;-58
2023/09/22 04:29:12;;;;;;;2.10;1.10;;;;;;;;;;2074295;28;20041;-58
2023/09/22 04:30:16;;;;;;;2.67;1.55;;;;;;;;;;2074044;28;20061;-58
2023/09/22 04:31:16;;;;;;;2.08;1.13;;;;;;;;;;2074364;28;20049;-57
2023/09/22 04:32:18;;;;;;;2.22;1.27;;;;;;;;;;2074334;28;20057;-58
2023/09/22 04:33:20;;;;;;;3.00;1.23;;;;;;;;;;2073524;28;20045;-58
2023/09/22 04:34:20;;;;;;;2.85;1.20;;;;;;;;;;2073699;28;20045;-57
2023/09/22 04:35:21;;;;;;;3.20;1.10;;;;;;;;;;2074324;28;20470;-58
2023/09/22 04:36:22;;;;;;;3.92;1.25;;;;;;;;;;2074380;28;20394;-58
2023/09/22 04:37:23;;;;;;;1.88;1.08;;;;;;;;;;2074342;28;20535;-57
2023/09/22 04:38:24;;;;;;;4.47;1.20;;;;;;;;;;2074314;28;20038;-58
2023/09/22 04:39:24;;;;;;;3.85;1.30;;;;;;;;;;2074279;28;20049;-58
2023/09/22 04:40:29;;;;;;;2.65;1.33;;;;;;;;;;2074466;28;20390;-57
2023/09/22 04:41:30;;;;;;;2.80;1.27;;;;;;;;;;2073713;28;20041;-58
2023/09/22 04:42:30;;;;;;;2.65;1.20;;;;;;;;;;2072716;28;20054;-58
2023/09/22 04:43:31;;;;;;;4.03;1.48;;;;;;;;;;2073905;28;20406;-58
2023/09/22 04:44:32;;;;;;;3.22;1.48;;;;;;;;;;2073994;28;20049;-58
2023/09/22 04:45:40;;;;;;;2.33;1.30;;;;;;;;;;2073950;28;20042;-57
2023/09/22 04:46:41;;;;;;;3.60;1.30;;;;;;;;;;2074109;28;20067;-58
2023/09/22 04:47:42;;;;;;;2.25;0.93;;;;;;;;;;2074298;28;20033;-59
2023/09/22 04:48:42;;;;;;;3.45;1.42;;;;;;;;;;2074284;28;20046;-57
2023/09/22 04:49:43;;;;;;;4.07;1.10;;;;;;;;;;2074387;28;20037;-58
2023/09/22 04:50:44;;;;;;;4.10;1.35;;;;;;;;;;2073799;28;20092;-58
2023/09/22 04:51:44;;;;;;;2.45;1.52;;;;;;;;;;2073805;28;20474;-58
2023/09/22 04:52:46;;;;;;;2.42;1.10;;;;;;;;;;2065111;28;20043;-59
2023/09/22 04:53:47;;;;;;;2.75;1.48;;;;;;;;;;2073437;28;20045;-58
2023/09/22 04:54:47;;;;;;;3.42;1.50;;;;;;;;;;2074260;28;20029;-58
2023/09/22 04:55:57;;;;;;;2.45;1.15;;;;;;;;;;2073824;28;20042;-58
2023/09/22 04:56:58;;;;;;;2.83;1.30;;;;;;;;;;2074463;28;20043;-58
2023/09/22 04:57:59;;;;;;;1.55;0.95;;;;;;;;;;2074192;28;20092;-58
2023/09/22 04:59:00;;;;;;;2.90;1.23;;;;;;;;;;2073932;28;20042;-57
2023/09/22 05:00:04;;;;;;;1.60;1.10;;;;;;;;;;2074223;28;20037;-57
2023/09/22 05:01:05;;;;;;;4.00;1.40;;;;;;;;;;2074093;28;20042;-58
2023/09/22 05:02:06;;;;;;;2.83;1.38;;;;;;;;;;2074323;28;20065;-57
2023/09/22 05:03:07;;;;;;;5.30;1.45;;;;;;;;;;2074144;28;20060;-57
2023/09/22 05:04:08;;;;;;;2.33;1.20;;;;;;;;;;2073969;28;20045;-58
2023/09/22 05:05:09;;;;;;;3.95;1.30;;;;;;;;;;2073690;28;20049;-58
2023/09/22 05:06:10;;;;;;;7.57;1.50;;;;;;;;;;2074087;28;20037;-57
2023/09/22 05:07:11;;;;;;;2.83;1.33;;;;;;;;;;2074116;28;20129;-57
2023/09/22 05:08:12;;;;;;;3.50;1.10;;;;;;;;;;2073927;28;20057;-57
2023/09/22 05:09:13;;;;;;;1.77;1.10;;;;;;;;;;2073948;28;20083;-58
2023/09/22 05:10:14;;;;;;;3.22;1.15;;;;;;;;;;2074235;28;20038;-58
2023/09/22 05:11:14;;;;;;;2.90;1.08;;;;;;;;;;2074026;28;20053;-58
2023/09/22 05:12:16;;;;;;;4.20;1.35;;;;;;;;;;2074157;28;20390;-58
2023/09/22 05:13:17;;;;;;;2.70;1.15;;;;;;;;;;2073974;28;20050;-58
2023/09/22 05:14:17;;;;;;;2.42;1.45;;;;;;;;;;2074131;28;20486;-58
2023/09/22 05:15:19;;;;;;;4.28;1.23;;;;;;;;;;2073677;28;20053;-57
2023/09/22 05:16:20;;;;;;;3.20;1.17;;;;;;;;;;2074156;28;20041;-58
2023/09/22 05:17:21;;;;;;;3.55;1.65;;;;;;;;;;2073321;28;20468;-57
2023/09/22 05:18:23;;;;;;;2.22;1.20;;;;;;;;;;2073982;28;20401;-58
2023/09/22 05:19:23;;;;;;;4.15;1.48;;;;;;;;;;2074008;28;20042;-58
2023/09/22 05:20:24;;;;;;;2.95;1.50;;;;;;;;;;2074170;28;20041;-57
2023/09/22 05:21:25;;;;;;;4.47;1.48;;;;;;;;;;2074055;28;20057;-58
2023/09/22 05:22:26;;;;;;;5.07;1.55;;;;;;;;;;2074018;28;20040;-57
2023/09/22 05:23:30;;;;;;;4.03;1.48;;;;;;;;;;2074212;28;20133;-58
2023/09/22 05:24:31;;;;;;;4.85;1.67;;;;;;;;;;2073849;28;20045;-58
2023/09/22 05:25:33;;;;;;;3.35;1.30;;;;;;;;;;2074162;28;20045;-57
2023/09/22 05:26:34;;;;;;;1.40;0.80;;;;;;;;;;2073988;28;20046;-58
2023/09/22 05:27:35;;;;;;;2.47;1.30;;;;;;;;;;2073866;28;20030;-58
2023/09/22 05:28:36;;;;;;;2.10;1.30;;;;;;;;;;2073676;28;20418;-58
2023/09/22 05:29:36;;;;;;;2.83;0.93;;;;;;;;;;2073932;28;20050;-57
2023/09/22 05:30:39;;;;;;;3.72;1.33;;;;;;;;;;2073910;28;20374;-57
2023/09/22 05:31:40;;;;;;;4.07;1.17;;;;;;;;;;2074237;28;20045;-58
2023/09/22 05:32:41;;;;;;;3.88;1.25;;;;;;;;;;2073876;28;20508;-58
2023/09/22 05:33:41;;;;;;;3.20;1.17;;;;;;;;;;2073984;28;20033;-58
2023/09/22 05:34:42;;;;;;;3.85;1.52;;;;;;;;;;2074042;28;20033;-58
2023/09/22 05:35:43;;;;;;;4.05;1.20;;;;;;;;;;2073892;28;20030;-58
2023/09/22 05:36:43;;;;;;;2.60;1.23;;;;;;;;;;2073205;28;20038;-58
2023/09/22 05:37:44;;;;;;;2.97;1.33;;;;;;;;;;2073554;28;20037;-57
2023/09/22 05:38:45;;;;;;;3.80;1.50;;;;;;;;;;2073326;28;20413;-57
2023/09/22 05:39:46;;;;;;;3.03;1.17;;;;;;;;;;2073487;28;20501;-58
2023/09/22 05:40:46;;;;;;;2.47;1.30;;;;;;;;;;2073893;28;20029;-57
2023/09/22 05:41:47;;;;;;;2.00;1.02;;;;;;;;;;2073612;28;20077;-58
2023/09/22 05:42:48;;;;;;;2.80;1.40;;;;;;;;;;2073746;28;20038;-58
2023/09/22 05:43:49;;;;;;;5.53;1.40;;;;;;;;;;2074356;28;20034;-57
2023/09/22 05:44:50;;;;;;;2.25;0.98;;;;;;;;;;2074339;28;20481;-62
2023/09/22 05:45:54;;;;;;;2.05;1.15;;;;;;;;;;2074513;28;20045;-58
2023/09/22 05:46:55;;;;;;;4.03;1.15;;;;;;;;;;2074294;28;20033;-58
2023/09/22 05:47:56;;;;;;;3.80;1.25;;;;;;;;;;2074590;28;20050;-68
2023/09/22 05:48:57;;;;;;;2.47;1.13;;;;;;;;;;2074709;28;20064;-59
2023/09/22 05:49:59;;;;;;;3.70;1.20;;;;;;;;;;2074180;28;20053;-59
2023/09/22 05:51:00;;;;;;;2.88;1.23;;;;;;;;;;2074334;28;20025;-59
2023/09/22 05:52:01;;;;;;;3.05;1.30;;;;;;;;;;2074114;28;20038;-59
2023/09/22 05:53:04;;;;;;;2.90;1.70;;;;;;;;;;2074140;28;20386;-59
2023/09/22 05:54:04;;;;;;;2.58;1.23;;;;;;;;;;2073902;28;20050;-59
2023/09/22 05:55:06;;;;;;;2.72;1.42;;;;;;;;;;2074544;28;20030;-59
2023/09/22 05:56:08;;;;;;;4.35;1.33;;;;;;;;;;2073585;28;20097;-59
2023/09/22 05:57:08;;;;;;;4.05;1.40;;;;;;;;;;2074248;28;20076;-59
2023/09/22 05:58:09;;;;;;;4.88;1.35;;;;;;;;;;2074305;28;20050;-59
2023/09/22 05:59:10;;;;;;;2.97;1.25;;;;;;;;;;2074719;28;20030;-61
2023/09/22 06:00:16;;;;;;;3.00;1.42;;;;;;;;;;2074631;28;20041;-58
2023/09/22 06:01:16;;;;;;;3.58;1.77;;;;;;;;;;2074431;28;20042;-58
2023/09/22 06:02:19;;;;;;;2.80;1.50;;;;;;;;;;2073980;28;20042;-58
2023/09/22 06:03:20;;;;;;;5.30;1.40;;;;;;;;;;2074075;28;20045;-59
2023/09/22 06:04:21;;;;;;;2.78;1.30;;;;;;;;;;2073778;28;20092;-59
2023/09/22 06:05:24;;;;;;;2.05;1.20;;;;;;;;;;2074417;28;20398;-59
2023/09/22 06:06:25;;;;;;;2.08;1.00;;;;;;;;;;2074254;28;20482;-59
2023/09/22 06:07:27;;;;;;;2.92;1.35;;;;;;;;;;2073835;28;20054;-59